Centre Hospitalier Heliport

FR-0119 · Aveyron, Occitanie, 法国

罗盘
风向 的 直升机
风: 2 kt, 1 beaufort
0 ft 1.000 2.000 3.000 4.000 5.000
CAVOK
METAR LFCR 130600Z AUTO VRB02KT CAVOK 09/06 Q1020 NOSIG

METAR Centre Hospitalier Heliport - FR-0119

Centre Hospitalier Heliport是,法国中的直升机场。 该机场位于纬度44,35889和经度2,55194。 这个机场没有ICAO代码,我们使用FR-0119作为参考。 机场在Bordeaux FIR中。

该航空气象观测是针对Rodez-Marcillac Airport在2024年6月13日 08:00, 当地时间进行的。

机场观察

可变方向的风很小或没有风。

天气为CAVOK。这意味着在5.000 ft或MSA(最低安全高度)以下(以较高者为准)以下没有云。这也意味着没有观测到积雨云或高耸的积云,可见度为10 km 或者更多或更高。此外,不会有雾,降雨或其他重要天气。

温度为9 °C,阵风为8 °C。 露点为6 °C,相对湿度为82%。 海平面上的气压为1020 hPa (QNH)。

白天

今天,太阳从06:04升起,在21:35降落。 这适用于Centre Hospitalier Heliport,世界夏令时可能有所不同。 当地时间与世界标准时间之间的时差为+2 小时。 夏令时目前正在进行中。

公司介绍

我们没有关于这个机场的公司信息。

体会

到Vliegles.nl去找飞行课程,跳伞和其他飞行体验。 浏览页面,了解Centre Hospitalier Heliport附近所有可用的活动。 你也可以使用搜索功能来寻找你所在地附近的特定飞行课程、跳伞或其他飞行体验。

温度 & 天气

温度 9 °C
露点 6 °C
相对湿度 82%
风寒 8 °C
Kp-index 0 (0-9)

白天

日出
06:05
中午
13:50
日落
21:35 (13:02)

小工具

你想在你的网站上有一个关于Centre Hospitalier Heliport的当前航空天气(METAR)的小部件吗?

显示HTML代码
报告变更